Time;durP1;ratioP1;P1;durP2;ratioP2;P2;SDS_P1;SDS_P2;PMS_P1;PMS_P2;Temp;Humidity;BMP_temperature;BMP_pressure;BME280_temperature;BME280_humidity;BME280_pressure;Samples;Min_cycle;Max_cycle;Signal;HPM_P1;HPM_P2
2024/04/09 00:00:21;;;;;;;3.42;2.37;;;;;;;;;;4385328;32;316328;-80
2024/04/09 00:02:48;;;;;;;3.65;2.08;;;;;;;;;;4381431;32;414512;-80
2024/04/09 00:05:15;;;;;;;5.47;2.40;;;;;;;;;;4393080;32;317213;-80
2024/04/09 00:07:43;;;;;;;4.47;1.70;;;;;;;;;;4372374;32;317161;-81
2024/04/09 00:10:13;;;;;;;4.90;1.85;;;;;;;;;;4391451;32;316759;-80
2024/04/09 00:12:43;;;;;;;4.15;2.15;;;;;;;;;;4382348;32;317511;-81
2024/04/09 00:15:12;;;;;;;2.45;1.65;;;;;;;;;;4389510;32;316969;-79
2024/04/09 00:17:44;;;;;;;5.15;2.72;;;;;;;;;;4372008;32;317179;-81
2024/04/09 00:20:18;;;;;;;4.45;3.03;;;;;;;;;;4402718;32;317181;-81
2024/04/09 00:22:45;;;;;;;4.03;2.50;;;;;;;;;;4376134;32;317148;-81
2024/04/09 00:25:22;;;;;;;6.22;2.08;;;;;;;;;;4395868;32;316642;-81
2024/04/09 00:27:50;;;;;;;4.47;2.28;;;;;;;;;;4375524;32;417769;-80
2024/04/09 00:30:17;;;;;;;2.28;1.58;;;;;;;;;;4394066;32;317304;-81
2024/04/09 00:32:45;;;;;;;4.80;2.12;;;;;;;;;;4382729;32;316610;-80
2024/04/09 00:35:12;;;;;;;6.03;2.50;;;;;;;;;;4396153;32;316633;-80
2024/04/09 00:37:41;;;;;;;6.50;2.45;;;;;;;;;;4381207;32;317414;-81
2024/04/09 00:40:10;;;;;;;4.37;3.00;;;;;;;;;;4395440;32;317559;-80
2024/04/09 00:42:43;;;;;;;16.55;12.07;;;;;;;;;;4387283;32;316475;-79
2024/04/09 00:45:10;;;;;;;9.27;5.22;;;;;;;;;;4393700;32;319317;-81
2024/04/09 00:47:38;;;;;;;7.18;4.20;;;;;;;;;;4364708;32;316757;-81
2024/04/09 00:50:11;;;;;;;5.68;2.20;;;;;;;;;;4383858;32;315792;-80
2024/04/09 00:52:39;;;;;;;4.60;2.12;;;;;;;;;;4388237;32;317466;-80
2024/04/09 00:55:09;;;;;;;12.10;2.53;;;;;;;;;;4397857;32;316597;-80
2024/04/09 00:57:39;;;;;;;4.05;1.67;;;;;;;;;;4375466;32;317497;-80
2024/04/09 01:00:12;;;;;;;6.18;2.37;;;;;;;;;;4415294;32;316908;-80
2024/04/09 01:02:41;;;;;;;3.67;2.23;;;;;;;;;;4393922;32;342000;-80
2024/04/09 01:05:10;;;;;;;3.85;2.08;;;;;;;;;;4409623;32;315596;-80
2024/04/09 01:07:37;;;;;;;7.70;2.35;;;;;;;;;;4396510;32;316993;-80
2024/04/09 01:10:05;;;;;;;3.47;2.00;;;;;;;;;;4410075;32;335750;-81
2024/04/09 01:12:31;;;;;;;4.15;1.80;;;;;;;;;;4400867;32;316290;-80
2024/04/09 01:14:59;;;;;;;3.30;2.47;;;;;;;;;;4397337;32;317174;-79
2024/04/09 01:17:25;;;;;;;4.57;2.00;;;;;;;;;;4386490;32;315331;-79
2024/04/09 01:19:51;;;;;;;3.83;2.22;;;;;;;;;;4390570;32;317040;-79
2024/04/09 01:22:17;;;;;;;5.28;2.05;;;;;;;;;;4388865;32;356231;-79
2024/04/09 01:24:45;;;;;;;5.85;2.22;;;;;;;;;;4368475;32;324826;-79
2024/04/09 01:27:14;;;;;;;1.98;1.77;;;;;;;;;;4379886;32;317395;-79
2024/04/09 01:29:41;;;;;;;4.53;2.60;;;;;;;;;;4374343;32;317094;-79
2024/04/09 01:32:07;;;;;;;5.22;2.78;;;;;;;;;;4394099;32;317302;-80
2024/04/09 01:34:35;;;;;;;8.45;2.97;;;;;;;;;;4385314;32;317031;-80
2024/04/09 01:37:01;;;;;;;4.62;2.53;;;;;;;;;;4393312;32;317125;-80
2024/04/09 01:39:28;;;;;;;2.83;1.65;;;;;;;;;;4381005;32;317114;-80
2024/04/09 01:41:55;;;;;;;5.97;2.15;;;;;;;;;;4370825;32;317202;-80
2024/04/09 01:44:22;;;;;;;2.78;1.73;;;;;;;;;;4368989;32;346617;-80
2024/04/09 01:46:48;;;;;;;7.82;3.78;;;;;;;;;;4379320;32;317496;-80
2024/04/09 01:49:15;;;;;;;9.63;2.12;;;;;;;;;;4380735;32;351032;-80
2024/04/09 01:51:41;;;;;;;2.92;1.80;;;;;;;;;;4366749;32;317864;-80
2024/04/09 01:54:07;;;;;;;4.22;1.80;;;;;;;;;;4383138;32;316580;-80
2024/04/09 01:56:33;;;;;;;2.55;1.55;;;;;;;;;;4371512;32;317329;-80
2024/04/09 01:59:03;;;;;;;3.37;1.55;;;;;;;;;;4380426;32;317206;-80
2024/04/09 02:01:30;;;;;;;4.50;1.55;;;;;;;;;;4372138;32;317269;-80
2024/04/09 02:03:57;;;;;;;1.48;1.30;;;;;;;;;;4383773;32;327025;-81
2024/04/09 02:06:23;;;;;;;7.05;2.70;;;;;;;;;;4375571;32;368115;-81
2024/04/09 02:08:50;;;;;;;5.43;2.70;;;;;;;;;;4382859;32;317175;-81
2024/04/09 02:11:16;;;;;;;3.67;2.55;;;;;;;;;;4381576;32;317329;-80
2024/04/09 02:13:47;;;;;;;4.53;2.90;;;;;;;;;;4367485;32;348314;-80
2024/04/09 02:16:16;;;;;;;6.18;2.50;;;;;;;;;;4394534;32;317128;-80
2024/04/09 02:18:43;;;;;;;2.35;1.90;;;;;;;;;;4383029;32;317287;-80
2024/04/09 02:21:09;;;;;;;7.18;2.45;;;;;;;;;;4394523;32;317143;-80
2024/04/09 02:23:36;;;;;;;6.28;3.33;;;;;;;;;;4378306;32;317497;-80
2024/04/09 02:26:01;;;;;;;5.70;2.83;;;;;;;;;;4393088;32;316410;-80
2024/04/09 02:28:28;;;;;;;7.75;4.10;;;;;;;;;;4383234;32;318043;-80
2024/04/09 02:30:54;;;;;;;9.45;4.37;;;;;;;;;;4394044;32;316503;-81
2024/04/09 02:33:22;;;;;;;11.57;5.47;;;;;;;;;;4394508;32;317069;-79
2024/04/09 02:35:54;;;;;;;12.13;6.45;;;;;;;;;;4373560;32;417825;-81
2024/04/09 02:38:21;;;;;;;15.00;6.95;;;;;;;;;;4393451;32;317375;-80
2024/04/09 02:40:46;;;;;;;9.05;5.25;;;;;;;;;;4381548;32;417222;-80
2024/04/09 02:43:13;;;;;;;9.38;5.20;;;;;;;;;;4394170;32;316335;-80
2024/04/09 02:45:39;;;;;;;9.10;4.78;;;;;;;;;;4377179;32;316591;-80
2024/04/09 02:48:06;;;;;;;10.70;4.47;;;;;;;;;;4393883;32;317182;-80
2024/04/09 02:50:33;;;;;;;6.30;3.28;;;;;;;;;;4383938;32;318490;-80
2024/04/09 02:53:00;;;;;;;6.00;2.97;;;;;;;;;;4393596;32;317302;-81
2024/04/09 02:55:26;;;;;;;6.27;3.30;;;;;;;;;;4383932;32;317532;-80
2024/04/09 02:57:52;;;;;;;9.93;3.07;;;;;;;;;;4387247;32;317535;-80
2024/04/09 03:00:19;;;;;;;7.37;3.42;;;;;;;;;;4390115;32;317258;-79
2024/04/09 03:02:53;;;;;;;8.57;3.47;;;;;;;;;;4384390;32;317634;-81
2024/04/09 03:05:26;;;;;;;7.13;3.80;;;;;;;;;;4399223;32;317001;-81
2024/04/09 03:07:55;;;;;;;9.82;3.50;;;;;;;;;;4388120;32;416178;-79
2024/04/09 03:10:21;;;;;;;13.68;3.28;;;;;;;;;;4390498;32;316373;-79
2024/04/09 03:12:47;;;;;;;6.20;3.78;;;;;;;;;;4400921;32;318075;-80
2024/04/09 03:15:13;;;;;;;6.03;3.60;;;;;;;;;;4403146;32;316993;-80
2024/04/09 03:17:41;;;;;;;8.17;4.40;;;;;;;;;;4380994;32;316724;-79
2024/04/09 03:20:10;;;;;;;12.88;3.67;;;;;;;;;;4399922;32;317328;-79
2024/04/09 03:22:36;;;;;;;6.17;3.50;;;;;;;;;;4390319;32;318524;-79
2024/04/09 03:25:05;;;;;;;5.05;2.97;;;;;;;;;;4401131;32;317189;-79
2024/04/09 03:27:32;;;;;;;6.55;3.80;;;;;;;;;;4392343;32;316516;-79
2024/04/09 03:29:59;;;;;;;10.30;4.40;;;;;;;;;;4398147;32;317309;-81
2024/04/09 03:32:26;;;;;;;8.32;4.05;;;;;;;;;;4390154;32;317989;-79
2024/04/09 03:34:51;;;;;;;9.43;3.83;;;;;;;;;;4396226;32;317079;-79
2024/04/09 03:37:18;;;;;;;10.10;3.40;;;;;;;;;;4394767;32;317010;-79
2024/04/09 03:39:45;;;;;;;5.50;3.93;;;;;;;;;;4380551;32;318142;-79
2024/04/09 03:42:13;;;;;;;9.47;3.53;;;;;;;;;;4395717;32;317210;-79
2024/04/09 03:44:39;;;;;;;11.57;3.00;;;;;;;;;;4384539;32;316689;-79
2024/04/09 03:47:06;;;;;;;11.73;4.67;;;;;;;;;;4395321;32;318266;-79
2024/04/09 03:49:33;;;;;;;6.97;3.30;;;;;;;;;;4383980;32;317421;-81
2024/04/09 03:52:00;;;;;;;8.20;3.43;;;;;;;;;;4395781;32;317155;-81
2024/04/09 03:54:26;;;;;;;4.78;3.50;;;;;;;;;;4385042;32;317966;-80
2024/04/09 03:56:52;;;;;;;3.00;2.23;;;;;;;;;;4394257;32;317312;-79
2024/04/09 03:59:19;;;;;;;12.52;3.70;;;;;;;;;;4406200;32;317193;-80
2024/04/09 04:01:47;;;;;;;11.18;4.30;;;;;;;;;;4393156;32;318251;-80
2024/04/09 04:04:13;;;;;;;10.10;4.90;;;;;;;;;;4407580;32;317534;-80
2024/04/09 04:06:39;;;;;;;11.10;5.07;;;;;;;;;;4392476;32;317993;-80
2024/04/09 04:09:06;;;;;;;14.75;4.57;;;;;;;;;;4378895;32;318709;-81
2024/04/09 04:11:33;;;;;;;13.77;5.00;;;;;;;;;;4370588;32;325414;-80
2024/04/09 04:13:59;;;;;;;13.47;7.70;;;;;;;;;;4389039;32;318797;-79
2024/04/09 04:16:27;;;;;;;21.07;9.30;;;;;;;;;;4387512;32;318263;-80
2024/04/09 04:18:53;;;;;;;24.63;8.63;;;;;;;;;;4397932;32;317600;-81
2024/04/09 04:21:22;;;;;;;23.00;9.37;;;;;;;;;;4395256;32;317571;-80
2024/04/09 04:23:50;;;;;;;26.60;9.13;;;;;;;;;;4378124;32;418298;-81
2024/04/09 04:26:18;;;;;;;26.10;8.23;;;;;;;;;;4414171;32;318207;-80
2024/04/09 04:28:45;;;;;;;21.40;7.10;;;;;;;;;;4402892;32;318392;-80
2024/04/09 04:31:13;;;;;;;19.93;6.37;;;;;;;;;;4411754;32;360117;-80
2024/04/09 04:33:41;;;;;;;13.87;6.70;;;;;;;;;;4380021;32;346508;-81
2024/04/09 04:36:10;;;;;;;24.53;6.97;;;;;;;;;;4397734;32;318171;-79
2024/04/09 04:38:36;;;;;;;13.33;6.93;;;;;;;;;;4387581;32;317376;-81
2024/04/09 04:41:04;;;;;;;15.47;6.93;;;;;;;;;;4398370;32;317973;-79
2024/04/09 04:43:30;;;;;;;17.90;8.03;;;;;;;;;;4388725;32;318727;-79
2024/04/09 04:45:57;;;;;;;16.30;7.83;;;;;;;;;;4390646;32;318320;-80
2024/04/09 04:48:23;;;;;;;11.33;6.50;;;;;;;;;;4387646;32;318316;-82
2024/04/09 04:50:52;;;;;;;16.60;7.33;;;;;;;;;;4397091;32;318379;-82
2024/04/09 04:53:18;;;;;;;16.90;7.07;;;;;;;;;;4397668;32;318289;-81
2024/04/09 04:55:44;;;;;;;18.90;6.63;;;;;;;;;;4380302;32;318560;-82
2024/04/09 04:58:10;;;;;;;17.37;8.00;;;;;;;;;;4398335;32;318421;-81
2024/04/09 05:00:37;;;;;;;20.30;7.47;;;;;;;;;;4387617;32;318355;-81
2024/04/09 05:03:04;;;;;;;20.90;7.33;;;;;;;;;;4396834;32;318370;-82
2024/04/09 05:05:31;;;;;;;19.53;7.37;;;;;;;;;;4371333;32;318558;-80
2024/04/09 05:07:59;;;;;;;16.27;6.57;;;;;;;;;;4381260;32;317588;-82
2024/04/09 05:10:25;;;;;;;14.40;5.33;;;;;;;;;;4371808;32;318302;-80
2024/04/09 05:12:52;;;;;;;8.97;4.13;;;;;;;;;;4381091;32;337133;-81
2024/04/09 05:15:20;;;;;;;14.73;5.07;;;;;;;;;;4395307;32;316992;-81
2024/04/09 05:17:47;;;;;;;22.60;5.37;;;;;;;;;;4360373;32;418079;-81
2024/04/09 05:20:16;;;;;;;27.10;6.60;;;;;;;;;;4380920;32;319032;-81
2024/04/09 05:22:44;;;;;;;22.48;5.72;;;;;;;;;;4370059;32;318395;-81
2024/04/09 05:25:13;;;;;;;22.20;5.83;;;;;;;;;;4382665;32;317880;-80
2024/04/09 05:27:39;;;;;;;28.48;7.15;;;;;;;;;;4380222;32;318151;-82
2024/04/09 05:30:09;;;;;;;35.67;12.27;;;;;;;;;;4397453;32;318320;-81
2024/04/09 05:32:35;;;;;;;33.27;17.53;;;;;;;;;;4386036;32;318664;-80
2024/04/09 05:35:02;;;;;;;28.87;14.03;;;;;;;;;;4393445;32;319381;-81
2024/04/09 05:37:28;;;;;;;31.53;12.60;;;;;;;;;;4387402;32;319355;-82
2024/04/09 05:39:55;;;;;;;27.10;10.18;;;;;;;;;;4391238;32;319163;-81
2024/04/09 05:42:22;;;;;;;33.78;11.18;;;;;;;;;;4392182;32;319410;-82
2024/04/09 05:44:49;;;;;;;19.20;9.10;;;;;;;;;;4391719;32;319263;-78
2024/04/09 05:47:15;;;;;;;18.60;7.13;;;;;;;;;;4392555;32;318134;-77
2024/04/09 05:49:41;;;;;;;17.90;6.67;;;;;;;;;;4372409;32;318167;-79
2024/04/09 05:52:07;;;;;;;18.60;7.23;;;;;;;;;;4393505;32;318280;-78
2024/04/09 05:54:39;;;;;;;18.45;6.37;;;;;;;;;;4382191;32;318407;-78
2024/04/09 05:57:05;;;;;;;12.73;5.63;;;;;;;;;;4392578;32;318284;-77
2024/04/09 05:59:34;;;;;;;14.37;5.50;;;;;;;;;;4381787;32;318228;-77
2024/04/09 06:02:00;;;;;;;17.92;5.95;;;;;;;;;;4388471;32;318348;-77
2024/04/09 06:04:28;;;;;;;14.10;5.00;;;;;;;;;;4380362;32;318393;-79
2024/04/09 06:06:54;;;;;;;10.20;5.37;;;;;;;;;;4391224;32;318350;-78
2024/04/09 06:09:20;;;;;;;11.23;5.93;;;;;;;;;;4391348;32;318308;-78
2024/04/09 06:11:46;;;;;;;16.83;5.83;;;;;;;;;;4375462;32;317454;-78
2024/04/09 06:14:13;;;;;;;12.70;3.87;;;;;;;;;;4394906;32;318141;-78
2024/04/09 06:16:40;;;;;;;11.02;4.28;;;;;;;;;;4384016;32;318386;-78
2024/04/09 06:19:07;;;;;;;19.52;4.43;;;;;;;;;;4383297;32;318224;-77
2024/04/09 06:21:32;;;;;;;4.03;3.10;;;;;;;;;;4365925;32;318370;-79
2024/04/09 06:23:59;;;;;;;17.07;3.93;;;;;;;;;;4386872;32;316673;-78
2024/04/09 06:26:25;;;;;;;11.27;4.30;;;;;;;;;;4382931;32;318253;-78
2024/04/09 06:28:52;;;;;;;9.77;3.20;;;;;;;;;;4391618;32;318156;-78
2024/04/09 06:31:18;;;;;;;9.85;3.10;;;;;;;;;;4392570;32;317185;-79
2024/04/09 06:33:46;;;;;;;3.97;2.25;;;;;;;;;;4375326;32;317273;-79
2024/04/09 06:36:12;;;;;;;9.02;2.80;;;;;;;;;;4403747;32;316773;-77
2024/04/09 06:38:39;;;;;;;5.10;2.40;;;;;;;;;;4406186;32;317472;-78
2024/04/09 06:41:05;;;;;;;7.85;2.12;;;;;;;;;;4389809;32;318042;-77
2024/04/09 06:43:32;;;;;;;13.52;2.40;;;;;;;;;;4392137;32;317267;-78
2024/04/09 06:45:58;;;;;;;4.35;2.20;;;;;;;;;;4376849;32;318243;-79
2024/04/09 06:48:25;;;;;;;8.50;1.98;;;;;;;;;;4393187;32;317348;-77
2024/04/09 06:50:53;;;;;;;11.05;2.28;;;;;;;;;;4381953;32;317399;-77
2024/04/09 06:53:19;;;;;;;5.30;2.50;;;;;;;;;;4391816;32;318121;-78
2024/04/09 06:55:45;;;;;;;16.60;2.67;;;;;;;;;;4383027;32;317459;-77
2024/04/09 06:58:12;;;;;;;11.65;3.00;;;;;;;;;;4385336;32;317682;-77
2024/04/09 07:00:37;;;;;;;9.13;2.23;;;;;;;;;;4405291;32;318089;-78
2024/04/09 07:03:05;;;;;;;5.10;3.00;;;;;;;;;;4396986;32;317450;-78
2024/04/09 07:05:31;;;;;;;11.73;2.22;;;;;;;;;;4407933;32;317045;-78
2024/04/09 07:08:00;;;;;;;6.15;2.45;;;;;;;;;;4391428;32;318230;-77
2024/04/09 07:10:27;;;;;;;4.20;2.60;;;;;;;;;;4408168;32;317485;-77
2024/04/09 07:12:54;;;;;;;8.55;2.15;;;;;;;;;;4398925;32;317054;-77
2024/04/09 07:15:26;;;;;;;9.65;3.12;;;;;;;;;;4377716;32;317646;-77
2024/04/09 07:17:53;;;;;;;7.18;2.35;;;;;;;;;;4367267;32;317251;-78
2024/04/09 07:20:18;;;;;;;4.70;2.58;;;;;;;;;;4372694;32;317317;-79
2024/04/09 07:22:45;;;;;;;5.15;2.58;;;;;;;;;;4366836;32;317097;-77
2024/04/09 07:25:13;;;;;;;9.60;3.08;;;;;;;;;;4377602;32;317278;-78
2024/04/09 07:27:40;;;;;;;5.25;2.97;;;;;;;;;;4376786;32;327591;-78
2024/04/09 07:30:06;;;;;;;12.27;2.85;;;;;;;;;;4360339;32;317418;-78
2024/04/09 07:32:33;;;;;;;11.18;2.42;;;;;;;;;;4377795;32;318365;-80
2024/04/09 07:34:59;;;;;;;3.70;2.20;;;;;;;;;;4368521;32;318250;-78
2024/04/09 07:37:26;;;;;;;6.60;2.30;;;;;;;;;;4389214;32;316997;-77
2024/04/09 07:39:51;;;;;;;8.95;2.70;;;;;;;;;;4381007;32;317076;-78
2024/04/09 07:42:20;;;;;;;4.62;2.80;;;;;;;;;;4384518;32;317428;-78
2024/04/09 07:44:47;;;;;;;5.50;2.60;;;;;;;;;;4380557;32;317278;-79
2024/04/09 07:47:14;;;;;;;7.05;2.92;;;;;;;;;;4391280;32;317126;-77
2024/04/09 07:49:40;;;;;;;4.45;2.42;;;;;;;;;;4391389;32;317456;-77
2024/04/09 07:52:07;;;;;;;5.22;2.55;;;;;;;;;;4374129;32;317487;-78
2024/04/09 07:54:33;;;;;;;4.90;2.22;;;;;;;;;;4391633;32;317045;-78
2024/04/09 07:56:59;;;;;;;13.80;2.90;;;;;;;;;;4380929;32;317432;-77
2024/04/09 07:59:26;;;;;;;3.85;2.28;;;;;;;;;;4391420;32;318171;-78
2024/04/09 08:01:53;;;;;;;10.50;1.80;;;;;;;;;;4383512;32;317273;-78
2024/04/09 08:04:19;;;;;;;2.83;1.80;;;;;;;;;;4382579;32;318306;-77
2024/04/09 08:06:46;;;;;;;3.53;1.58;;;;;;;;;;4370495;32;317041;-77
2024/04/09 08:09:11;;;;;;;5.75;2.03;;;;;;;;;;4390772;32;330337;-77
2024/04/09 08:11:41;;;;;;;7.70;1.92;;;;;;;;;;4379908;32;316955;-77
2024/04/09 08:14:07;;;;;;;3.40;1.60;;;;;;;;;;4368526;32;317211;-78
2024/04/09 08:16:35;;;;;;;4.45;1.40;;;;;;;;;;4377887;32;317372;-78
2024/04/09 08:19:02;;;;;;;8.60;1.65;;;;;;;;;;4375548;32;317093;-77
2024/04/09 08:21:29;;;;;;;9.13;1.55;;;;;;;;;;4391473;32;317226;-77
2024/04/09 08:23:56;;;;;;;7.37;1.92;;;;;;;;;;4376830;32;317336;-77
2024/04/09 08:26:23;;;;;;;9.50;1.77;;;;;;;;;;4391309;32;317060;-78
2024/04/09 08:28:51;;;;;;;5.18;1.65;;;;;;;;;;4381952;32;317127;-78
2024/04/09 08:31:28;;;;;;;1.92;1.35;;;;;;;;;;4390810;32;316819;-77
2024/04/09 08:33:56;;;;;;;8.43;1.85;;;;;;;;;;4377315;32;316604;-77
2024/04/09 08:36:23;;;;;;;3.47;1.73;;;;;;;;;;4390771;32;317152;-77
2024/04/09 08:38:50;;;;;;;1.75;1.40;;;;;;;;;;4387022;32;316948;-78
2024/04/09 08:41:18;;;;;;;2.90;1.45;;;;;;;;;;4390131;32;317240;-78
2024/04/09 08:43:45;;;;;;;7.43;1.75;;;;;;;;;;4366195;32;317055;-77
2024/04/09 08:46:13;;;;;;;5.15;1.73;;;;;;;;;;4370464;32;316539;-79
2024/04/09 08:48:39;;;;;;;8.27;2.47;;;;;;;;;;4374210;32;317251;-79
2024/04/09 08:51:10;;;;;;;5.87;1.90;;;;;;;;;;4376215;32;317692;-80
2024/04/09 08:53:37;;;;;;;5.97;1.60;;;;;;;;;;4380229;32;317096;-81
2024/04/09 08:56:05;;;;;;;4.35;1.70;;;;;;;;;;4362145;32;317213;-80
2024/04/09 08:58:31;;;;;;;9.68;1.90;;;;;;;;;;4377145;32;317239;-79
2024/04/09 09:00:58;;;;;;;3.95;1.62;;;;;;;;;;4367859;32;317106;-79
2024/04/09 09:03:24;;;;;;;4.93;2.85;;;;;;;;;;4378685;32;317084;-80
2024/04/09 09:05:58;;;;;;;8.13;2.60;;;;;;;;;;4353820;32;317142;-80
2024/04/09 09:08:26;;;;;;;2.47;1.08;;;;;;;;;;4364728;32;316296;-79
2024/04/09 09:10:55;;;;;;;2.83;1.40;;;;;;;;;;4365769;32;316474;-80
2024/04/09 09:13:20;;;;;;;2.85;1.30;;;;;;;;;;4380807;32;317308;-79
2024/04/09 09:15:54;;;;;;;2.08;1.42;;;;;;;;;;4374405;32;317313;-80
2024/04/09 09:18:23;;;;;;;6.78;2.08;;;;;;;;;;4376481;32;317166;-79
2024/04/09 09:20:59;;;;;;;3.67;1.30;;;;;;;;;;4375321;32;317201;-79
2024/04/09 09:23:26;;;;;;;5.55;1.42;;;;;;;;;;4384823;32;318633;-79
2024/04/09 09:25:54;;;;;;;6.82;1.80;;;;;;;;;;4379020;32;316383;-79
2024/04/09 09:28:22;;;;;;;2.25;1.55;;;;;;;;;;4389991;32;316746;-79
2024/04/09 09:30:49;;;;;;;3.97;1.70;;;;;;;;;;4367000;32;339952;-79
2024/04/09 09:33:19;;;;;;;5.85;1.65;;;;;;;;;;4386992;32;316155;-80
2024/04/09 09:35:49;;;;;;;7.85;2.60;;;;;;;;;;4375998;32;317196;-80
2024/04/09 09:38:16;;;;;;;4.40;1.87;;;;;;;;;;4381714;32;325029;-78
2024/04/09 09:40:48;;;;;;;2.80;1.83;;;;;;;;;;4379087;32;317148;-77
2024/04/09 09:43:16;;;;;;;2.58;1.45;;;;;;;;;;4364414;32;416402;-78
2024/04/09 09:45:44;;;;;;;11.70;2.60;;;;;;;;;;4378572;32;338218;-78
2024/04/09 09:48:12;;;;;;;5.05;1.73;;;;;;;;;;4356222;32;418737;-78
2024/04/09 09:50:39;;;;;;;4.18;2.00;;;;;;;;;;4377922;32;317799;-78
2024/04/09 09:53:07;;;;;;;2.97;1.77;;;;;;;;;;4367840;32;342731;-78
2024/04/09 09:55:35;;;;;;;10.60;1.75;;;;;;;;;;4377511;32;317470;-78
2024/04/09 09:58:04;;;;;;;5.90;1.20;;;;;;;;;;4359317;32;349886;-78
2024/04/09 10:00:33;;;;;;;4.80;1.58;;;;;;;;;;4377205;32;317145;-78
2024/04/09 10:03:00;;;;;;;3.17;2.25;;;;;;;;;;4369854;32;317018;-78
2024/04/09 10:05:31;;;;;;;2.87;1.62;;;;;;;;;;4376941;32;317480;-78
2024/04/09 10:07:58;;;;;;;2.05;1.58;;;;;;;;;;4376543;32;317277;-78
2024/04/09 10:10:25;;;;;;;6.87;2.00;;;;;;;;;;4382051;32;318075;-78
2024/04/09 10:12:53;;;;;;;4.03;1.33;;;;;;;;;;4369608;32;342561;-78
2024/04/09 10:15:25;;;;;;;4.00;2.50;;;;;;;;;;4376509;32;315883;-78
2024/04/09 10:17:53;;;;;;;5.75;2.50;;;;;;;;;;4367431;32;317437;-78
2024/04/09 10:20:20;;;;;;;4.53;2.10;;;;;;;;;;4373517;32;358241;-78
2024/04/09 10:22:47;;;;;;;9.02;2.67;;;;;;;;;;4367855;32;317510;-78
2024/04/09 10:25:18;;;;;;;5.97;2.25;;;;;;;;;;4376209;32;317447;-78
2024/04/09 10:27:44;;;;;;;4.10;2.10;;;;;;;;;;4368555;32;317211;-78
2024/04/09 10:30:15;;;;;;;2.75;1.85;;;;;;;;;;4371876;32;317353;-78
2024/04/09 10:32:53;;;;;;;4.25;2.42;;;;;;;;;;4377423;32;325562;-78
2024/04/09 10:35:22;;;;;;;7.28;2.45;;;;;;;;;;4366393;32;417831;-77
2024/04/09 10:37:49;;;;;;;12.52;3.03;;;;;;;;;;4367285;32;317381;-78
2024/04/09 10:40:14;;;;;;;3.72;1.95;;;;;;;;;;4371501;32;317769;-78
2024/04/09 10:42:41;;;;;;;4.55;1.95;;;;;;;;;;4377997;32;317256;-78
2024/04/09 10:45:07;;;;;;;3.35;2.10;;;;;;;;;;4367110;32;317312;-78
2024/04/09 10:47:33;;;;;;;3.87;1.65;;;;;;;;;;4377798;32;317359;-78
2024/04/09 10:50:02;;;;;;;8.60;2.37;;;;;;;;;;4361306;32;318117;-78
2024/04/09 10:52:32;;;;;;;4.55;2.22;;;;;;;;;;4373374;32;317474;-79
2024/04/09 10:55:06;;;;;;;6.65;2.10;;;;;;;;;;4366254;32;317514;-79
2024/04/09 10:57:33;;;;;;;8.85;2.10;;;;;;;;;;4375762;32;316612;-78
2024/04/09 11:00:08;;;;;;;2.85;1.40;;;;;;;;;;4354950;32;359135;-80
2024/04/09 11:02:35;;;;;;;3.97;1.75;;;;;;;;;;4361375;32;317345;-78
2024/04/09 11:05:02;;;;;;;4.47;1.90;;;;;;;;;;4350491;32;317354;-78
2024/04/09 11:07:29;;;;;;;8.75;2.40;;;;;;;;;;4361705;32;317576;-79
2024/04/09 11:09:56;;;;;;;4.62;1.70;;;;;;;;;;4363416;32;317966;-79
2024/04/09 11:12:23;;;;;;;4.47;1.50;;;;;;;;;;4376773;32;317145;-78
2024/04/09 11:14:49;;;;;;;5.03;2.08;;;;;;;;;;4370130;32;317377;-78
2024/04/09 11:17:17;;;;;;;2.75;2.03;;;;;;;;;;4389184;32;317165;-79
2024/04/09 11:19:43;;;;;;;2.80;1.70;;;;;;;;;;4383301;32;317104;-77
2024/04/09 11:22:12;;;;;;;6.25;1.95;;;;;;;;;;4387828;32;317182;-77
2024/04/09 11:24:37;;;;;;;3.28;1.73;;;;;;;;;;4392745;32;316394;-77
2024/04/09 11:27:06;;;;;;;5.25;1.60;;;;;;;;;;4380780;32;317014;-77
2024/04/09 11:29:31;;;;;;;9.93;1.67;;;;;;;;;;4381533;32;317405;-79
2024/04/09 11:32:01;;;;;;;7.20;2.45;;;;;;;;;;4363326;32;317376;-78
2024/04/09 11:34:28;;;;;;;3.90;1.77;;;;;;;;;;4377182;32;317322;-78
2024/04/09 11:36:55;;;;;;;2.45;1.48;;;;;;;;;;4363851;32;317232;-77
2024/04/09 11:39:23;;;;;;;2.85;1.65;;;;;;;;;;4377666;32;317268;-76
2024/04/09 11:41:50;;;;;;;5.65;2.45;;;;;;;;;;4359777;32;316729;-78
2024/04/09 11:44:19;;;;;;;1.83;1.27;;;;;;;;;;4378077;32;317041;-78
2024/04/09 11:46:46;;;;;;;2.65;1.37;;;;;;;;;;4366888;32;317154;-79
2024/04/09 11:49:12;;;;;;;7.80;1.75;;;;;;;;;;4378038;32;317319;-78
2024/04/09 11:51:39;;;;;;;9.38;1.95;;;;;;;;;;4363934;32;317224;-78
2024/04/09 11:54:07;;;;;;;5.32;1.70;;;;;;;;;;4354985;32;317324;-79
2024/04/09 11:56:38;;;;;;;5.30;1.67;;;;;;;;;;4362347;32;317374;-78
2024/04/09 11:59:05;;;;;;;4.20;1.60;;;;;;;;;;4351540;32;417921;-78
2024/04/09 12:01:31;;;;;;;2.72;1.33;;;;;;;;;;4365317;32;317276;-78
2024/04/09 12:03:57;;;;;;;5.50;3.08;;;;;;;;;;4345252;32;317126;-78
2024/04/09 12:06:23;;;;;;;6.82;1.90;;;;;;;;;;4370869;32;317465;-79
2024/04/09 12:08:52;;;;;;;9.25;1.50;;;;;;;;;;4366355;32;317162;-78
2024/04/09 12:11:18;;;;;;;3.58;1.10;;;;;;;;;;4375985;32;317275;-78
2024/04/09 12:13:47;;;;;;;5.93;1.55;;;;;;;;;;4365495;32;317002;-79
2024/04/09 12:16:12;;;;;;;5.12;1.52;;;;;;;;;;4376375;32;317224;-77
2024/04/09 12:18:39;;;;;;;3.50;1.75;;;;;;;;;;4367285;32;317366;-78
2024/04/09 12:21:05;;;;;;;3.42;1.30;;;;;;;;;;4376671;32;353103;-79
2024/04/09 12:23:31;;;;;;;3.60;1.20;;;;;;;;;;4377479;32;326156;-78
2024/04/09 12:25:57;;;;;;;4.12;1.42;;;;;;;;;;4360222;32;317145;-79
2024/04/09 12:28:24;;;;;;;4.72;1.73;;;;;;;;;;4376332;32;317242;-78
2024/04/09 12:30:52;;;;;;;2.47;1.10;;;;;;;;;;4369056;32;317217;-78
2024/04/09 12:33:20;;;;;;;1.90;1.37;;;;;;;;;;4379301;32;318001;-78
2024/04/09 12:35:45;;;;;;;8.57;1.15;;;;;;;;;;4367379;32;317446;-77
2024/04/09 12:38:12;;;;;;;3.40;1.40;;;;;;;;;;4369667;32;317131;-78
2024/04/09 12:40:38;;;;;;;2.67;0.95;;;;;;;;;;4356550;32;366357;-78
2024/04/09 12:43:05;;;;;;;4.78;1.10;;;;;;;;;;4379098;32;316519;-78
2024/04/09 12:45:31;;;;;;;2.90;1.75;;;;;;;;;;4380100;32;316493;-78
2024/04/09 12:47:59;;;;;;;2.58;1.60;;;;;;;;;;4361731;32;317268;-78
2024/04/09 12:50:26;;;;;;;1.75;1.00;;;;;;;;;;4379235;32;317153;-78
2024/04/09 12:52:53;;;;;;;2.95;1.25;;;;;;;;;;4370253;32;317123;-77
2024/04/09 12:55:18;;;;;;;11.68;1.50;;;;;;;;;;4380239;32;317079;-78
2024/04/09 12:57:45;;;;;;;2.75;1.02;;;;;;;;;;4370195;32;318159;-78
2024/04/09 13:00:12;;;;;;;2.30;1.10;;;;;;;;;;4382873;32;317571;-78
2024/04/09 13:02:38;;;;;;;5.37;0.80;;;;;;;;;;4370355;32;317482;-78
2024/04/09 13:05:11;;;;;;;4.35;0.95;;;;;;;;;;4378775;32;317148;-78
2024/04/09 13:07:38;;;;;;;5.22;1.12;;;;;;;;;;4368713;32;373104;-78
2024/04/09 13:10:05;;;;;;;1.80;0.98;;;;;;;;;;4374751;32;317334;-78
2024/04/09 13:12:31;;;;;;;3.42;1.20;;;;;;;;;;4394442;32;317209;-78
2024/04/09 13:14:57;;;;;;;1.62;0.77;;;;;;;;;;4383656;32;316526;-78
2024/04/09 13:17:24;;;;;;;2.65;1.42;;;;;;;;;;4392677;32;317104;-79
2024/04/09 13:19:50;;;;;;;3.20;1.20;;;;;;;;;;4373375;32;317378;-79
2024/04/09 13:22:18;;;;;;;1.27;0.90;;;;;;;;;;4381477;32;317168;-77
2024/04/09 13:24:43;;;;;;;2.55;0.90;;;;;;;;;;4369719;32;317878;-78
2024/04/09 13:27:10;;;;;;;3.72;1.20;;;;;;;;;;4379482;32;317111;-77
2024/04/09 13:29:36;;;;;;;4.18;1.37;;;;;;;;;;4374042;32;316546;-78
2024/04/09 13:32:02;;;;;;;1.15;0.80;;;;;;;;;;4387689;32;347880;-78
2024/04/09 13:34:29;;;;;;;3.87;0.93;;;;;;;;;;4393871;32;317390;-79
2024/04/09 13:36:56;;;;;;;1.77;0.62;;;;;;;;;;4384574;32;317215;-78
2024/04/09 13:39:23;;;;;;;6.18;1.48;;;;;;;;;;4368752;32;316459;-78
2024/04/09 13:41:49;;;;;;;4.03;1.10;;;;;;;;;;4347236;32;317370;-79
2024/04/09 13:44:15;;;;;;;1.87;1.08;;;;;;;;;;4363921;32;317359;-78
2024/04/09 13:46:42;;;;;;;0.90;0.80;;;;;;;;;;4354429;32;317249;-79
2024/04/09 13:49:08;;;;;;;2.42;1.05;;;;;;;;;;4364065;32;317052;-77
2024/04/09 13:51:35;;;;;;;3.53;0.80;;;;;;;;;;4354924;32;317260;-79
2024/04/09 13:54:01;;;;;;;3.60;1.23;;;;;;;;;;4356198;32;317372;-78
2024/04/09 13:56:29;;;;;;;1.80;0.70;;;;;;;;;;4362942;32;344756;-78
2024/04/09 13:58:54;;;;;;;2.83;0.85;;;;;;;;;;4354556;32;317133;-78
2024/04/09 14:01:21;;;;;;;4.72;0.85;;;;;;;;;;4378879;32;317026;-77
2024/04/09 14:03:47;;;;;;;1.07;0.67;;;;;;;;;;4363360;32;326822;-78
2024/04/09 14:06:14;;;;;;;9.98;1.20;;;;;;;;;;4378108;32;317248;-78
2024/04/09 14:08:40;;;;;;;1.80;0.93;;;;;;;;;;4368958;32;317316;-78
2024/04/09 14:11:07;;;;;;;3.40;1.12;;;;;;;;;;4378803;32;317368;-77
2024/04/09 14:13:35;;;;;;;1.35;0.80;;;;;;;;;;4376824;32;317167;-78
2024/04/09 14:16:01;;;;;;;0.90;0.80;;;;;;;;;;4372189;32;317251;-79
2024/04/09 14:18:31;;;;;;;1.70;1.00;;;;;;;;;;4377997;32;317049;-78
2024/04/09 14:21:02;;;;;;;2.15;0.80;;;;;;;;;;4368866;32;317074;-78
2024/04/09 14:23:27;;;;;;;4.20;1.05;;;;;;;;;;4378826;32;316503;-77
2024/04/09 14:25:54;;;;;;;3.28;0.82;;;;;;;;;;4361142;32;317032;-77